Time;durP1;ratioP1;P1;durP2;ratioP2;P2;SDS_P1;SDS_P2;PMS_P1;PMS_P2;Temp;Humidity;BMP_temperature;BMP_pressure;BME280_temperature;BME280_humidity;BME280_pressure;Samples;Min_cycle;Max_cycle;Signal;HPM_P1;HPM_P2
2023/01/27 00:02:23;;;;;;;7.20;2.78;;;;;;;3.92;100.00;102381.78;5015311;28;20196;-66
2023/01/27 00:04:48;;;;;;;8.13;2.65;;;;;;;3.91;100.00;102372.19;5032961;28;20108;-66
2023/01/27 00:07:13;;;;;;;9.10;2.28;;;;;;;3.90;100.00;102379.28;5033058;28;20037;-66
2023/01/27 00:09:40;;;;;;;18.67;4.07;;;;;;;3.88;100.00;102375.91;5032613;28;20067;-66
2023/01/27 00:14:55;;;;;;;5.05;2.08;;;;;;;3.83;100.00;102379.84;5032976;28;20088;-66
2023/01/27 00:17:20;;;;;;;10.77;3.38;;;;;;;3.83;100.00;102379.84;5032878;28;20057;-66
2023/01/27 00:19:46;;;;;;;4.85;2.40;;;;;;;3.82;100.00;102381.63;5032797;28;20025;-66
2023/01/27 00:24:55;;;;;;;6.80;3.20;;;;;;;3.81;100.00;102377.31;5032912;28;20182;-66
2023/01/27 00:27:20;;;;;;;9.93;2.53;;;;;;;3.80;100.00;102388.81;5032599;28;20492;-66
2023/01/27 00:29:46;;;;;;;10.48;2.63;;;;;;;3.81;100.00;102379.94;5032581;28;20056;-66
2023/01/27 00:34:55;;;;;;;11.27;3.08;;;;;;;3.82;100.00;102386.88;5032813;28;20099;-66
2023/01/27 00:37:20;;;;;;;8.57;2.42;;;;;;;3.81;100.00;102389.66;5032255;28;20413;-66
2023/01/27 00:39:46;;;;;;;9.25;3.33;;;;;;;3.77;100.00;102389.03;5032426;28;20117;-66
2023/01/27 00:42:11;;;;;;;14.10;2.83;;;;;;;3.76;100.00;102391.81;5014875;28;20036;-66
2023/01/27 00:44:36;;;;;;;12.43;3.75;;;;;;;3.77;100.00;102391.66;5032273;28;20661;-66
2023/01/27 00:47:02;;;;;;;7.07;3.05;;;;;;;3.73;100.00;102392.88;5032531;28;20037;-66
2023/01/27 00:49:27;;;;;;;10.18;2.80;;;;;;;3.68;100.00;102385.28;5032271;28;20090;-66
2023/01/27 00:51:53;;;;;;;10.27;4.78;;;;;;;3.63;100.00;102395.34;5032028;28;20056;-66
2023/01/27 00:54:19;;;;;;;8.32;2.95;;;;;;;3.66;100.00;102395.09;5032108;28;20496;-66
2023/01/27 00:56:44;;;;;;;14.57;3.90;;;;;;;3.59;100.00;102399.19;5032176;28;20033;-66
2023/01/27 00:59:10;;;;;;;11.18;3.60;;;;;;;3.58;100.00;102400.09;5032145;28;20035;-66
2023/01/27 01:01:36;;;;;;;7.88;3.58;;;;;;;3.62;100.00;102403.38;5032040;28;20056;-67
2023/01/27 01:04:02;;;;;;;9.52;3.17;;;;;;;3.55;100.00;102397.69;5031739;28;20037;-67
2023/01/27 01:06:27;;;;;;;10.57;3.05;;;;;;;3.63;100.00;102395.34;5031912;28;20143;-66
2023/01/27 01:08:55;;;;;;;7.93;2.72;;;;;;;3.55;100.00;102402.13;5031962;28;20038;-66
2023/01/27 01:11:21;;;;;;;22.50;4.63;;;;;;;3.53;100.00;102411.94;5030661;28;20030;-66
2023/01/27 01:13:47;;;;;;;9.85;4.55;;;;;;;3.58;100.00;102396.63;5031271;28;20112;-66
2023/01/27 01:16:15;;;;;;;11.65;3.92;;;;;;;3.51;100.00;102405.00;5031331;28;20171;-62
2023/01/27 01:18:42;;;;;;;5.32;3.55;;;;;;;3.48;100.00;102399.97;5031327;28;20025;-63
2023/01/27 01:21:07;;;;;;;8.93;3.60;;;;;;;3.49;100.00;102399.00;5031126;28;20032;-63
2023/01/27 01:23:33;;;;;;;7.10;3.30;;;;;;;3.44;100.00;102409.03;5013380;28;20033;-62
2023/01/27 01:25:59;;;;;;;10.50;3.30;;;;;;;3.49;100.00;102406.91;5031205;28;20144;-62
2023/01/27 01:28:25;;;;;;;14.63;4.72;;;;;;;3.48;100.00;102421.06;5031240;28;20116;-63
2023/01/27 01:30:50;;;;;;;16.55;4.70;;;;;;;3.43;100.00;102410.00;5030874;28;20473;-63
2023/01/27 01:33:16;;;;;;;12.98;3.78;;;;;;;3.44;100.00;102414.31;5030892;28;20049;-62
2023/01/27 01:35:42;;;;;;;11.57;3.45;;;;;;;3.37;100.00;102415.69;5030928;28;20050;-63
2023/01/27 01:38:07;;;;;;;6.07;3.38;;;;;;;3.43;100.00;102423.19;5031259;28;20033;-63
2023/01/27 01:40:33;;;;;;;10.50;3.53;;;;;;;3.41;100.00;102416.34;5030670;28;20040;-63
2023/01/27 01:43:03;;;;;;;7.80;2.70;;;;;;;3.41;100.00;102424.25;5031178;28;20033;-62
2023/01/27 01:45:31;;;;;;;10.43;3.97;;;;;;;3.36;100.00;102427.22;5031159;28;20030;-63
2023/01/27 01:48:11;;;;;;;13.80;5.18;;;;;;;3.39;100.00;102418.25;5031065;28;20512;-62
2023/01/27 01:50:39;;;;;;;10.93;3.85;;;;;;;3.38;100.00;102416.53;5031172;28;20029;-63
2023/01/27 01:53:05;;;;;;;9.93;3.20;;;;;;;3.37;100.00;102410.44;5030786;28;20489;-63
2023/01/27 01:55:33;;;;;;;12.40;5.47;;;;;;;3.34;100.00;102412.44;5031000;28;20022;-63
2023/01/27 01:58:00;;;;;;;13.05;4.68;;;;;;;3.35;100.00;102416.75;5030991;28;20033;-63
2023/01/27 02:00:25;;;;;;;13.77;4.20;;;;;;;3.37;100.00;102415.69;5031020;28;20034;-63
2023/01/27 02:02:53;;;;;;;8.75;3.63;;;;;;;3.36;100.00;102450.13;5030979;28;20029;-63
2023/01/27 02:05:25;;;;;;;9.15;3.58;;;;;;;3.35;100.00;102417.59;5030640;28;20033;-63
2023/01/27 02:08:20;;;;;;;11.20;4.00;;;;;;;3.44;100.00;102422.22;5030703;28;20084;-63
2023/01/27 02:10:45;;;;;;;8.30;4.00;;;;;;;3.30;100.00;102419.72;5028708;28;20130;-63
2023/01/27 02:13:11;;;;;;;14.02;5.22;;;;;;;3.29;100.00;102429.44;5030591;28;20079;-63
2023/01/27 02:15:37;;;;;;;9.93;3.45;;;;;;;3.26;100.00;102427.03;5030708;28;20041;-64
2023/01/27 02:18:03;;;;;;;10.15;5.25;;;;;;;3.26;100.00;102424.38;5030332;28;20067;-63
2023/01/27 02:20:48;;;;;;;13.73;4.03;;;;;;;3.27;100.00;102428.72;5030572;28;20041;-63
2023/01/27 02:23:22;;;;;;;11.15;4.40;;;;;;;3.24;100.00;102423.66;5030187;28;20023;-63
2023/01/27 02:25:59;;;;;;;16.02;5.25;;;;;;;3.25;100.00;102428.00;5030608;28;21015;-63
2023/01/27 02:28:27;;;;;;;11.07;4.80;;;;;;;3.24;100.00;102434.19;5030259;28;20025;-63
2023/01/27 02:30:52;;;;;;;13.40;4.88;;;;;;;3.23;100.00;102432.53;5030606;28;20033;-62
2023/01/27 02:33:18;;;;;;;13.07;4.15;;;;;;;3.22;100.00;102435.25;5029679;28;20025;-63
2023/01/27 02:35:59;;;;;;;8.73;4.28;;;;;;;3.21;100.00;102439.69;5029185;28;20103;-63
2023/01/27 02:38:29;;;;;;;8.82;4.10;;;;;;;3.20;100.00;102442.47;5029452;28;20316;-63
2023/01/27 02:40:58;;;;;;;9.15;4.13;;;;;;;3.21;100.00;102450.25;5029286;28;20029;-63
2023/01/27 02:43:23;;;;;;;10.75;4.10;;;;;;;3.22;100.00;102444.03;5029415;28;20086;-63
2023/01/27 02:45:49;;;;;;;11.82;4.20;;;;;;;3.24;100.00;102449.19;5012020;28;20477;-63
2023/01/27 02:48:14;;;;;;;14.63;6.18;;;;;;;3.22;100.00;102451.06;5029151;28;20441;-63
2023/01/27 02:50:40;;;;;;;15.25;4.43;;;;;;;3.22;100.00;102451.06;5011925;28;20037;-63
2023/01/27 02:53:06;;;;;;;9.35;3.67;;;;;;;3.24;100.00;102447.38;5029924;28;20128;-63
2023/01/27 02:55:31;;;;;;;10.18;4.22;;;;;;;3.20;100.00;102443.28;5030025;28;20543;-63
2023/01/27 02:57:57;;;;;;;9.73;3.25;;;;;;;3.21;100.00;102447.59;5029976;28;20029;-63
2023/01/27 03:00:22;;;;;;;10.38;4.63;;;;;;;3.20;100.00;102445.94;5029906;28;20392;-63
2023/01/27 03:02:47;;;;;;;8.18;3.53;;;;;;;3.19;100.00;102438.94;5029940;28;20029;-63
2023/01/27 03:05:14;;;;;;;11.48;4.85;;;;;;;3.15;100.00;102444.56;5029755;28;20473;-63
2023/01/27 03:07:40;;;;;;;14.45;5.50;;;;;;;3.15;100.00;102453.31;5029726;28;20037;-63
2023/01/27 03:10:07;;;;;;;12.25;4.53;;;;;;;3.17;100.00;102445.28;5030032;28;20393;-63
2023/01/27 03:12:32;;;;;;;13.75;6.15;;;;;;;3.14;100.00;102456.88;5029757;28;20041;-63
2023/01/27 03:20:25;;;;;;;12.07;5.40;;;;;;;3.16;100.00;102454.16;5029946;28;20051;-63
2023/01/27 03:22:51;;;;;;;13.27;5.53;;;;;;;3.17;100.00;102455.81;5029560;28;20381;-63
2023/01/27 03:25:16;;;;;;;12.38;5.10;;;;;;;3.20;100.00;102451.19;5029473;28;20055;-63
2023/01/27 03:27:42;;;;;;;12.20;5.15;;;;;;;3.20;100.00;102447.72;5029602;28;20385;-63
2023/01/27 03:30:08;;;;;;;13.52;4.40;;;;;;;3.14;100.00;102443.72;5029473;28;20041;-63
2023/01/27 03:32:34;;;;;;;19.45;6.18;;;;;;;3.13;100.00;102454.38;5029330;28;20381;-63
2023/01/27 03:35:00;;;;;;;11.93;4.75;;;;;;;3.10;100.00;102467.78;5030347;28;20158;-63
2023/01/27 03:48:35;;;;;;;17.65;7.60;;;;;;;3.11;100.00;102480.00;5033786;28;20615;-63
2023/01/27 03:51:02;;;;;;;19.35;7.68;;;;;;;3.10;100.00;102473.06;5032451;28;20037;-63
2023/01/27 03:53:27;;;;;;;20.65;5.55;;;;;;;3.08;100.00;102488.97;5033289;28;20421;-63
2023/01/27 03:55:53;;;;;;;19.33;8.60;;;;;;;3.13;100.00;102489.47;5033158;28;20086;-63
2023/01/27 03:58:20;;;;;;;14.98;6.00;;;;;;;3.16;100.00;102491.91;5033259;28;20043;-63
2023/01/27 04:00:51;;;;;;;21.92;8.57;;;;;;;3.09;100.00;102493.28;5033299;28;20032;-63
2023/01/27 04:08:50;;;;;;;18.13;7.78;;;;;;;3.15;100.00;102492.03;5033330;28;20044;-63
2023/01/27 04:14:00;;;;;;;12.82;5.13;;;;;;;3.16;100.00;102493.69;5032786;28;20432;-63
2023/01/27 04:16:29;;;;;;;16.30;5.43;;;;;;;3.12;100.00;102490.44;5032047;28;20087;-63
2023/01/27 04:18:55;;;;;;;17.20;5.70;;;;;;;3.07;100.00;102490.75;5032019;28;20051;-63
2023/01/27 04:21:20;;;;;;;19.95;7.30;;;;;;;3.12;100.00;102486.94;5031901;28;20025;-63
2023/01/27 04:23:45;;;;;;;19.75;6.80;;;;;;;3.05;100.00;102482.09;5031497;28;20087;-63
2023/01/27 04:26:11;;;;;;;21.52;6.80;;;;;;;3.06;100.00;102482.94;5031500;28;20446;-63
2023/01/27 04:28:36;;;;;;;17.90;7.80;;;;;;;3.01;100.00;102490.31;5032020;28;20092;-62
2023/01/27 04:31:02;;;;;;;11.20;5.55;;;;;;;3.02;100.00;102497.31;5032226;28;20026;-63
2023/01/27 04:33:28;;;;;;;16.20;6.70;;;;;;;2.98;100.00;102490.53;5031717;28;20064;-63
2023/01/27 04:35:54;;;;;;;17.83;6.20;;;;;;;2.95;100.00;102501.31;5032199;28;20108;-63
2023/01/27 04:38:19;;;;;;;15.73;6.28;;;;;;;2.94;100.00;102508.38;5032269;28;20026;-63
2023/01/27 04:40:45;;;;;;;16.75;6.30;;;;;;;2.94;100.00;102497.84;5032037;28;20631;-63
2023/01/27 04:43:10;;;;;;;20.85;7.00;;;;;;;2.93;100.00;102490.03;5031984;28;20076;-63
2023/01/27 04:45:35;;;;;;;16.95;6.32;;;;;;;2.99;100.00;102500.16;5032009;28;20026;-63
2023/01/27 04:48:01;;;;;;;13.65;6.90;;;;;;;3.00;100.00;102504.47;5032373;28;20112;-63
2023/01/27 04:50:26;;;;;;;14.77;6.75;;;;;;;3.01;100.00;102507.00;5014492;28;20052;-63
2023/01/27 04:52:52;;;;;;;15.75;6.30;;;;;;;3.01;100.00;102503.50;5032210;28;20080;-63
2023/01/27 04:55:17;;;;;;;16.60;7.30;;;;;;;3.04;100.00;102498.06;5032333;28;20935;-63
2023/01/27 04:57:42;;;;;;;16.70;5.60;;;;;;;2.99;100.00;102502.78;5032146;28;20974;-63
2023/01/27 05:00:10;;;;;;;14.30;5.55;;;;;;;3.01;100.00;102500.88;5032121;28;20047;-63
2023/01/27 05:02:35;;;;;;;14.55;7.18;;;;;;;3.06;100.00;102501.41;5031251;28;20108;-66
2023/01/27 05:05:03;;;;;;;16.10;5.63;;;;;;;3.01;100.00;102514.06;5032116;28;20467;-66
2023/01/27 05:07:32;;;;;;;14.88;5.63;;;;;;;2.98;100.00;102507.19;5031907;28;20045;-66
2023/01/27 05:09:57;;;;;;;12.65;4.72;;;;;;;3.03;100.00;102514.78;5032025;28;20083;-66
2023/01/27 05:12:23;;;;;;;17.70;5.82;;;;;;;2.99;100.00;102514.19;5031640;28;20045;-66
2023/01/27 05:14:48;;;;;;;14.52;5.57;;;;;;;3.01;100.00;102520.19;5031442;28;20037;-66
2023/01/27 05:17:14;;;;;;;14.55;4.93;;;;;;;3.00;100.00;102517.66;5030964;28;20037;-66
2023/01/27 05:19:39;;;;;;;19.33;6.60;;;;;;;2.90;100.00;102504.25;5031259;28;20029;-66
2023/01/27 05:22:04;;;;;;;15.25;5.82;;;;;;;2.99;100.00;102526.50;5031281;28;20026;-66
2023/01/27 05:24:30;;;;;;;18.23;6.80;;;;;;;2.98;100.00;102517.75;5031292;28;20071;-66
2023/01/27 05:26:56;;;;;;;17.67;7.15;;;;;;;3.00;100.00;102520.28;5031140;28;20033;-63
2023/01/27 05:29:22;;;;;;;16.38;6.65;;;;;;;2.98;100.00;102520.38;5030807;28;20102;-63
2023/01/27 05:31:47;;;;;;;18.35;6.65;;;;;;;2.99;100.00;102521.25;5030813;28;20461;-63
2023/01/27 05:34:12;;;;;;;16.90;6.85;;;;;;;2.98;100.00;102522.19;5030891;28;20041;-63
2023/01/27 05:36:38;;;;;;;15.30;5.82;;;;;;;2.97;100.00;102529.25;5030469;28;20049;-63
2023/01/27 05:39:03;;;;;;;15.57;6.93;;;;;;;3.00;100.00;102523.75;5031346;28;20402;-63
2023/01/27 05:41:30;;;;;;;16.13;7.13;;;;;;;2.96;100.00;102530.19;5030804;28;20033;-63
2023/01/27 05:43:55;;;;;;;14.82;6.07;;;;;;;2.95;100.00;102527.66;5031323;28;20120;-63
2023/01/27 05:46:26;;;;;;;16.02;7.68;;;;;;;2.96;100.00;102538.09;5031013;28;20068;-63
2023/01/27 05:48:53;;;;;;;17.25;6.88;;;;;;;2.97;100.00;102537.16;5031104;28;20486;-63
2023/01/27 05:51:21;;;;;;;15.05;5.75;;;;;;;3.06;100.00;102530.38;5031111;28;20045;-63
2023/01/27 05:53:47;;;;;;;18.25;7.95;;;;;;;3.02;100.00;102542.13;5031037;28;20037;-63
2023/01/27 05:56:17;;;;;;;14.60;5.93;;;;;;;3.05;100.00;102547.16;5031195;28;20353;-63
2023/01/27 05:58:43;;;;;;;18.33;6.40;;;;;;;2.99;100.00;102543.16;5012582;28;20029;-63
2023/01/27 06:01:13;;;;;;;18.08;7.28;;;;;;;3.00;100.00;102539.56;5030807;28;20029;-62
2023/01/27 06:03:40;;;;;;;17.58;7.70;;;;;;;3.03;100.00;102551.69;5030960;28;20026;-63
2023/01/27 06:06:07;;;;;;;15.55;7.05;;;;;;;3.01;100.00;102546.53;5030898;28;20021;-63
2023/01/27 06:08:33;;;;;;;16.33;6.03;;;;;;;3.00;100.00;102549.28;5030827;28;20033;-63
2023/01/27 06:10:59;;;;;;;16.77;6.53;;;;;;;3.01;100.00;102541.28;5030644;28;20025;-63
2023/01/27 06:13:25;;;;;;;16.38;6.05;;;;;;;3.01;100.00;102543.91;5030511;28;20508;-63
2023/01/27 06:15:51;;;;;;;14.98;6.72;;;;;;;3.01;100.00;102537.78;5029993;28;20033;-63
2023/01/27 06:18:18;;;;;;;18.17;7.03;;;;;;;3.05;100.00;102547.16;5029666;28;20477;-63
2023/01/27 06:20:44;;;;;;;15.82;6.55;;;;;;;3.01;100.00;102543.91;5029887;28;20511;-63
2023/01/27 06:23:11;;;;;;;12.10;4.60;;;;;;;3.01;100.00;102548.31;5029863;28;20616;-63
2023/01/27 06:25:48;;;;;;;13.15;6.15;;;;;;;3.10;100.00;102552.97;5029976;28;20021;-63
2023/01/27 06:28:14;;;;;;;13.30;5.85;;;;;;;3.12;100.00;102552.84;5030164;28;20026;-63
2023/01/27 06:30:40;;;;;;;14.90;6.57;;;;;;;3.13;100.00;102551.91;5030209;28;20036;-63
2023/01/27 06:33:06;;;;;;;15.88;6.32;;;;;;;3.13;100.00;102550.13;5029754;28;20925;-63
2023/01/27 06:35:34;;;;;;;14.63;5.18;;;;;;;3.13;100.00;102559.81;5029579;28;20435;-63
2023/01/27 06:38:01;;;;;;;15.75;6.18;;;;;;;3.11;100.00;102546.72;5029546;28;20099;-62
2023/01/27 06:40:27;;;;;;;17.30;8.10;;;;;;;3.12;100.00;102555.47;5029666;28;20068;-63
2023/01/27 06:42:53;;;;;;;13.80;5.68;;;;;;;3.12;100.00;102548.44;5030320;28;20082;-63
2023/01/27 06:45:19;;;;;;;14.48;5.68;;;;;;;3.12;100.00;102551.06;5012370;28;20037;-63
2023/01/27 06:47:44;;;;;;;14.18;4.45;;;;;;;3.12;100.00;102551.06;5030124;28;20029;-63
2023/01/27 06:50:10;;;;;;;15.32;6.20;;;;;;;3.12;100.00;102555.47;5030021;28;20037;-63
2023/01/27 06:52:36;;;;;;;12.95;5.40;;;;;;;3.12;100.00;102551.06;5029842;28;20041;-63
2023/01/27 06:55:03;;;;;;;11.63;4.82;;;;;;;3.15;100.00;102547.38;5029867;28;20033;-63
2023/01/27 06:57:28;;;;;;;12.80;4.75;;;;;;;3.18;100.00;102563.81;5030020;28;20037;-63
2023/01/27 06:59:54;;;;;;;13.00;5.15;;;;;;;3.18;100.00;102568.25;5029947;28;20029;-63
2023/01/27 07:02:19;;;;;;;12.18;5.50;;;;;;;3.23;100.00;102563.50;5029981;28;20036;-63
2023/01/27 07:04:45;;;;;;;11.35;4.45;;;;;;;3.24;100.00;102570.47;5029783;28;20034;-63
2023/01/27 07:07:10;;;;;;;11.40;5.32;;;;;;;3.23;100.00;102577.53;5029879;28;20030;-63
2023/01/27 07:09:35;;;;;;;8.80;4.15;;;;;;;3.26;100.00;102569.41;5029569;28;20051;-66
2023/01/27 07:12:01;;;;;;;10.73;4.72;;;;;;;3.28;100.00;102572.78;5029940;28;20187;-66
2023/01/27 07:14:26;;;;;;;7.40;3.30;;;;;;;3.27;100.00;102580.78;5029661;28;20037;-66
2023/01/27 07:16:51;;;;;;;8.82;3.72;;;;;;;3.29;100.00;102571.00;5029541;28;20045;-66
2023/01/27 07:19:17;;;;;;;10.77;4.40;;;;;;;3.28;100.00;102572.78;5029560;28;20039;-66
2023/01/27 07:21:42;;;;;;;8.30;3.85;;;;;;;3.31;100.00;102577.00;5029214;28;20052;-66
2023/01/27 07:24:08;;;;;;;11.45;4.82;;;;;;;3.32;100.00;102570.78;5029377;28;20025;-66
2023/01/27 07:26:33;;;;;;;9.52;4.05;;;;;;;3.34;100.00;102576.78;5011747;28;20147;-66
2023/01/27 07:28:59;;;;;;;8.85;3.60;;;;;;;3.34;100.00;102586.50;5029422;28;20519;-66
2023/01/27 07:31:24;;;;;;;9.07;4.22;;;;;;;3.34;100.00;102581.22;5029370;28;20380;-66
2023/01/27 07:33:51;;;;;;;12.45;4.07;;;;;;;3.37;100.00;102583.63;5029476;28;20038;-66
2023/01/27 07:36:17;;;;;;;6.25;3.33;;;;;;;3.37;100.00;102588.91;5029112;28;20132;-66
2023/01/27 07:38:42;;;;;;;7.93;3.55;;;;;;;3.37;100.00;102589.75;5029332;28;20116;-66
2023/01/27 07:41:07;;;;;;;6.15;3.35;;;;;;;3.37;100.00;102597.66;5029274;28;20489;-66
2023/01/27 07:43:33;;;;;;;11.10;3.85;;;;;;;3.39;100.00;102606.31;5029206;28;20469;-66
2023/01/27 07:45:59;;;;;;;7.25;3.10;;;;;;;3.39;100.00;102600.22;5029451;28;20029;-66
2023/01/27 07:48:25;;;;;;;10.80;5.55;;;;;;;3.39;100.00;102600.22;5029328;28;20041;-68
2023/01/27 07:50:51;;;;;;;7.28;3.70;;;;;;;3.37;100.00;102599.47;5011546;28;20030;-68
2023/01/27 07:53:16;;;;;;;8.20;4.28;;;;;;;3.37;100.00;102608.22;5029041;28;20033;-68
2023/01/27 07:55:42;;;;;;;7.35;3.95;;;;;;;3.35;100.00;102604.84;5029080;28;20112;-67
2023/01/27 07:58:08;;;;;;;7.63;3.55;;;;;;;3.38;100.00;102607.28;5029388;28;20393;-69
2023/01/27 08:00:33;;;;;;;8.30;3.75;;;;;;;3.39;100.00;102613.41;5029183;28;20114;-68
2023/01/27 08:03:00;;;;;;;8.05;3.78;;;;;;;3.39;100.00;102624.78;5029138;28;20489;-69
2023/01/27 08:05:27;;;;;;;9.00;3.65;;;;;;;3.41;100.00;102619.41;5029078;28;20037;-69
2023/01/27 08:07:53;;;;;;;6.28;3.13;;;;;;;3.41;100.00;102612.34;5029001;28;20040;-69
2023/01/27 08:10:19;;;;;;;4.95;3.08;;;;;;;3.46;100.00;102614.66;5011391;28;20041;-69
2023/01/27 08:12:45;;;;;;;6.30;2.90;;;;;;;3.38;100.00;102609.06;5029064;28;20030;-69
2023/01/27 08:15:11;;;;;;;8.57;3.47;;;;;;;3.40;100.00;102615.91;5028438;28;20033;-69
2023/01/27 08:17:37;;;;;;;9.00;3.13;;;;;;;3.42;100.00;102615.81;5029055;28;20022;-68
2023/01/27 08:20:04;;;;;;;5.97;3.70;;;;;;;3.49;100.00;102617.94;5028704;28;20032;-68
2023/01/27 08:22:29;;;;;;;7.03;3.38;;;;;;;3.44;100.00;102612.13;5031999;28;20412;-68
2023/01/27 08:24:55;;;;;;;5.68;3.05;;;;;;;3.47;100.00;102618.97;5032249;28;20030;-68
2023/01/27 08:27:20;;;;;;;7.90;3.28;;;;;;;3.45;100.00;102613.78;5032546;28;20033;-68
2023/01/27 08:29:46;;;;;;;9.15;3.80;;;;;;;3.44;100.00;102619.19;5032452;28;20540;-68
2023/01/27 08:32:11;;;;;;;8.05;3.53;;;;;;;3.42;100.00;102615.81;5032132;28;20033;-68
2023/01/27 08:34:38;;;;;;;7.57;3.33;;;;;;;3.45;100.00;102626.16;5032284;28;20029;-67
2023/01/27 08:37:04;;;;;;;7.80;3.20;;;;;;;3.44;100.00;102617.41;5030073;28;20095;-67
2023/01/27 08:39:30;;;;;;;9.30;3.40;;;;;;;3.42;100.00;102621.94;5026205;28;20029;-67
2023/01/27 08:41:56;;;;;;;9.80;4.70;;;;;;;3.43;100.00;102626.28;5026940;28;20053;-67
2023/01/27 08:44:21;;;;;;;5.53;2.67;;;;;;;3.44;100.00;102635.03;5026815;28;20063;-67
2023/01/27 08:46:47;;;;;;;6.35;3.35;;;;;;;3.46;100.00;102639.25;5026845;28;20041;-67
2023/01/27 08:49:13;;;;;;;9.02;3.70;;;;;;;3.45;100.00;102652.53;5026502;28;20405;-68
2023/01/27 08:51:38;;;;;;;9.45;3.65;;;;;;;3.40;100.00;102639.66;5026404;28;20042;-69
2023/01/27 08:54:05;;;;;;;8.15;3.28;;;;;;;3.45;100.00;102650.72;5026560;28;20040;-69
2023/01/27 08:56:30;;;;;;;6.65;3.35;;;;;;;3.45;100.00;102652.53;5026647;28;20046;-69
2023/01/27 08:58:56;;;;;;;5.43;3.35;;;;;;;3.51;100.00;102658.25;5026336;28;20029;-70
2023/01/27 09:01:21;;;;;;;7.18;3.00;;;;;;;3.52;100.00;102645.88;5026320;28;20022;-69
2023/01/27 09:03:47;;;;;;;5.13;2.50;;;;;;;3.58;100.00;102657.81;5030401;28;20032;-70
2023/01/27 09:06:13;;;;;;;7.18;3.47;;;;;;;3.60;100.00;102651.47;5031881;28;20044;-68
2023/01/27 09:08:40;;;;;;;8.07;3.80;;;;;;;3.57;100.00;102641.13;5031909;28;20067;-67
2023/01/27 09:11:14;;;;;;;4.97;2.78;;;;;;;3.66;100.00;102653.66;5031834;28;20041;-70
2023/01/27 09:13:41;;;;;;;8.73;3.60;;;;;;;3.72;100.00;102655.03;5013722;28;20025;-69
2023/01/27 09:16:06;;;;;;;8.85;2.83;;;;;;;3.81;100.00;102650.94;5031693;28;20033;-68
2023/01/27 09:18:32;;;;;;;7.15;3.28;;;;;;;3.83;100.00;102643.75;5031605;28;20025;-70
2023/01/27 09:21:02;;;;;;;5.35;3.03;;;;;;;3.81;100.00;102653.56;5031701;28;20362;-69
2023/01/27 09:23:27;;;;;;;7.10;3.40;;;;;;;3.77;100.00;102663.47;5025562;28;20056;-69
2023/01/27 09:25:53;;;;;;;7.50;3.65;;;;;;;3.81;100.00;102661.47;5030044;28;20071;-69
2023/01/27 09:28:18;;;;;;;7.63;3.25;;;;;;;3.80;100.00;102675.63;5031595;28;20017;-68
2023/01/27 09:30:44;;;;;;;7.25;2.88;;;;;;;3.72;100.00;102679.66;5031525;28;20481;-68
2023/01/27 09:33:11;;;;;;;7.18;3.22;;;;;;;3.70;100.00;102676.28;5030411;28;20504;-68
2023/01/27 09:35:51;;;;;;;5.35;2.53;;;;;;;3.74;100.00;102685.63;5031526;28;20071;-69
2023/01/27 09:38:20;;;;;;;7.68;3.40;;;;;;;3.71;100.00;102679.75;5031281;28;20446;-68
2023/01/27 09:41:01;;;;;;;7.13;3.47;;;;;;;3.65;100.00;102670.47;5031362;28;20064;-68
2023/01/27 09:44:08;;;;;;;7.97;4.15;;;;;;;3.66;100.00;102668.66;5031307;28;20029;-68
2023/01/27 09:47:13;;;;;;;5.45;2.88;;;;;;;3.63;100.00;102675.00;5031260;28;20026;-68
2023/01/27 09:49:52;;;;;;;10.20;3.88;;;;;;;3.67;100.00;102681.75;5031244;28;20369;-68
2023/01/27 09:52:57;;;;;;;9.73;5.07;;;;;;;3.67;100.00;102692.31;5030934;28;20426;-68
2023/01/27 09:55:37;;;;;;;7.68;3.50;;;;;;;3.69;100.00;102692.19;5031085;28;20039;-68
2023/01/27 09:58:17;;;;;;;7.40;2.92;;;;;;;3.73;100.00;102678.69;5030958;28;20036;-70
2023/01/27 10:01:07;;;;;;;8.75;3.90;;;;;;;3.75;100.00;102689.16;5031046;28;20060;-69
2023/01/27 10:04:10;;;;;;;6.97;2.83;;;;;;;3.74;100.00;102687.44;5030936;28;20036;-69
2023/01/27 10:06:58;;;;;;;5.28;2.58;;;;;;;3.74;100.00;102693.56;5031015;28;20119;-69
2023/01/27 10:09:34;;;;;;;6.07;3.03;;;;;;;3.78;100.00;102688.09;5013166;28;20141;-69
2023/01/27 10:12:11;;;;;;;6.75;2.90;;;;;;;3.75;100.00;102686.50;5030579;28;20065;-69
2023/01/27 10:14:37;;;;;;;5.00;3.00;;;;;;;3.77;100.00;102683.75;5030848;28;20033;-69
2023/01/27 10:17:23;;;;;;;8.98;3.95;;;;;;;3.75;100.00;102681.22;5030630;28;20043;-69
2023/01/27 10:19:57;;;;;;;7.50;3.42;;;;;;;3.82;100.00;102682.47;5012847;28;20424;-69
2023/01/27 10:22:41;;;;;;;4.90;3.20;;;;;;;3.88;100.00;102678.59;5030541;28;20021;-69
2023/01/27 10:25:24;;;;;;;6.10;3.13;;;;;;;3.88;100.00;102682.06;5030438;28;20063;-70
2023/01/27 10:27:57;;;;;;;8.55;2.80;;;;;;;3.95;100.00;102693.84;5030484;28;20087;-70
2023/01/27 10:30:34;;;;;;;7.47;3.22;;;;;;;3.90;100.00;102679.28;5030569;28;20029;-71
2023/01/27 10:33:15;;;;;;;9.40;4.00;;;;;;;3.96;100.00;102686.81;5030349;28;20164;-71
2023/01/27 10:35:52;;;;;;;5.63;3.60;;;;;;;3.93;100.00;102681.75;5030359;28;20353;-70
2023/01/27 10:38:20;;;;;;;5.82;3.15;;;;;;;3.90;100.00;102680.16;5030047;28;20327;-71
2023/01/27 10:40:50;;;;;;;6.82;2.95;;;;;;;3.89;100.00;102686.38;5029986;28;20040;-70
2023/01/27 10:43:29;;;;;;;5.47;3.17;;;;;;;3.82;100.00;102689.56;5030279;28;20025;-65
2023/01/27 10:46:50;;;;;;;6.63;3.53;;;;;;;3.77;100.00;102683.75;5030181;28;20084;-65
2023/01/27 10:49:30;;;;;;;4.25;3.20;;;;;;;3.75;100.00;102681.22;4963179;28;20504;-65
2023/01/27 10:52:14;;;;;;;8.75;4.07;;;;;;;3.70;100.00;102680.72;4949460;28;20034;-65
2023/01/27 10:54:52;;;;;;;8.52;3.03;;;;;;;3.71;100.00;102682.38;5004807;28;20129;-65
2023/01/27 10:57:47;;;;;;;9.23;4.38;;;;;;;3.67;100.00;102678.28;5029968;28;20104;-64
2023/01/27 11:00:29;;;;;;;5.68;3.38;;;;;;;3.70;100.00;102678.91;5029992;28;20029;-64
2023/01/27 11:03:12;;;;;;;6.93;3.38;;;;;;;3.70;100.00;102672.78;5029844;28;20028;-65
2023/01/27 11:05:51;;;;;;;5.57;2.75;;;;;;;3.69;100.00;102686.91;5029891;28;20033;-64
2023/01/27 11:08:24;;;;;;;6.30;3.08;;;;;;;3.68;100.00;102672.88;5029909;28;20036;-64
2023/01/27 11:13:39;;;;;;;6.35;3.58;;;;;;;3.81;100.00;102691.34;5029666;28;20135;-64
2023/01/27 11:16:15;;;;;;;6.88;3.15;;;;;;;3.82;100.00;102682.47;5029696;28;20057;-64
2023/01/27 11:18:45;;;;;;;8.32;3.72;;;;;;;3.85;100.00;102669.09;5029282;28;20039;-64
2023/01/27 11:21:26;;;;;;;9.80;3.67;;;;;;;3.91;100.00;102666.00;5029743;28;20066;-64
2023/01/27 11:23:58;;;;;;;6.93;3.60;;;;;;;3.96;100.00;102665.69;5029679;28;20429;-68
2023/01/27 11:26:37;;;;;;;8.48;4.20;;;;;;;3.99;100.00;102651.44;5029580;28;20432;-69
2023/01/27 11:29:21;;;;;;;6.05;2.92;;;;;;;4.07;100.00;102663.13;5029402;28;20025;-69
2023/01/27 11:32:03;;;;;;;4.82;2.63;;;;;;;4.08;100.00;102664.78;5029477;28;20033;-68
2023/01/27 11:34:32;;;;;;;8.60;4.13;;;;;;;4.05;100.00;102659.75;5029508;28;20128;-69
2023/01/27 11:36:58;;;;;;;6.53;3.22;;;;;;;4.04;100.00;102668.63;5029285;28;20049;-68
2023/01/27 11:39:29;;;;;;;6.13;3.42;;;;;;;4.06;100.00;102666.72;5029430;28;20029;-69
2023/01/27 11:41:55;;;;;;;8.35;4.07;;;;;;;4.07;100.00;102670.19;5028911;28;20067;-69
2023/01/27 11:44:24;;;;;;;8.05;3.08;;;;;;;4.06;100.00;102665.84;5029315;28;20025;-69
2023/01/27 11:46:52;;;;;;;10.15;3.67;;;;;;;4.02;100.00;102662.59;5029368;28;20388;-69
2023/01/27 11:49:24;;;;;;;8.63;4.15;;;;;;;4.02;100.00;102669.69;5028750;28;20121;-68
2023/01/27 11:51:50;;;;;;;9.68;4.03;;;;;;;4.02;100.00;102667.03;5029301;28;20540;-68
2023/01/27 11:54:25;;;;;;;8.48;3.70;;;;;;;4.03;100.00;102676.63;5029383;28;20143;-69
2023/01/27 11:56:51;;;;;;;11.07;3.28;;;;;;;3.96;100.00;102668.31;5031529;28;20396;-68
2023/01/27 11:59:22;;;;;;;8.00;3.75;;;;;;;3.92;100.00;102672.97;5033150;28;20033;-68
2023/01/27 12:02:05;;;;;;;9.48;3.55;;;;;;;3.88;100.00;102665.38;5033156;28;20040;-68
2023/01/27 12:04:53;;;;;;;8.27;3.47;;;;;;;3.88;100.00;102660.94;5033375;28;20057;-69
2023/01/27 12:07:45;;;;;;;6.03;3.05;;;;;;;3.84;100.00;102659.47;5032881;28;20041;-68